Time;durP1;ratioP1;P1;durP2;ratioP2;P2;SDS_P1;SDS_P2;PMS_P1;PMS_P2;Temp;Humidity;BMP_temperature;BMP_pressure;BME280_temperature;BME280_humidity;BME280_pressure;Samples;Min_cycle;Max_cycle;Signal;HPM_P1;HPM_P2
2024/03/31 00:02:14;;;;;;;7.95;4.93;;;;;;;6.73;64.64;99558.88;4845946;29;20633;-71
2024/03/31 00:04:40;;;;;;;5.90;3.92;;;;;;;6.75;64.46;99551.13;4862240;29;20061;-72
2024/03/31 00:07:07;;;;;;;5.18;3.50;;;;;;;6.76;65.01;99563.19;4876019;29;20127;-72
2024/03/31 00:09:33;;;;;;;7.20;3.70;;;;;;;6.62;64.91;99535.56;4873987;29;20095;-72
2024/03/31 00:11:59;;;;;;;9.00;4.40;;;;;;;6.70;65.29;99558.03;4876040;29;20425;-71
2024/03/31 00:14:25;;;;;;;8.73;4.43;;;;;;;6.75;64.84;99566.63;4857728;29;20049;-73
2024/03/31 00:16:51;;;;;;;6.90;4.63;;;;;;;6.71;64.91;99560.59;4874598;29;20041;-71
2024/03/31 00:19:18;;;;;;;7.25;4.28;;;;;;;6.66;65.32;99551.09;4847239;29;20049;-72
2024/03/31 00:21:43;;;;;;;7.63;4.25;;;;;;;6.71;65.55;99554.56;4861722;29;20204;-71
2024/03/31 00:24:10;;;;;;;13.38;4.70;;;;;;;6.68;65.15;99560.59;4873062;29;20059;-72
2024/03/31 00:26:36;;;;;;;9.82;4.47;;;;;;;6.57;64.98;99550.19;4859305;29;20143;-73
2024/03/31 00:29:02;;;;;;;14.65;4.18;;;;;;;6.66;65.59;99564.03;4877812;29;20500;-72
2024/03/31 00:31:28;;;;;;;10.32;4.18;;;;;;;6.68;65.09;99583.00;4874242;29;20052;-71
2024/03/31 00:33:54;;;;;;;9.10;4.00;;;;;;;6.66;65.33;99582.13;4856646;29;20512;-72
2024/03/31 00:36:20;;;;;;;6.43;4.05;;;;;;;6.65;65.29;99585.56;4877335;29;20092;-72
2024/03/31 00:38:46;;;;;;;10.45;4.03;;;;;;;6.55;65.23;99580.34;4890318;29;20525;-71
2024/03/31 00:41:12;;;;;;;7.53;4.28;;;;;;;6.50;65.31;99570.88;4846388;29;20084;-72
2024/03/31 00:43:38;;;;;;;5.65;3.50;;;;;;;6.51;65.81;99581.19;4844570;29;20079;-72
2024/03/31 00:46:04;;;;;;;9.88;3.85;;;;;;;6.45;66.03;99573.44;4875110;29;20453;-71
2024/03/31 00:48:30;;;;;;;7.00;4.00;;;;;;;6.39;65.36;99566.53;4876075;29;20045;-72
2024/03/31 00:50:57;;;;;;;6.82;4.15;;;;;;;6.29;65.81;99557.84;4874195;29;20044;-72
2024/03/31 00:53:23;;;;;;;11.32;4.07;;;;;;;6.35;65.36;99582.00;4846642;29;20048;-72
2024/03/31 00:55:49;;;;;;;8.07;4.07;;;;;;;6.32;65.66;99568.19;4843125;29;20048;-71
2024/03/31 00:58:15;;;;;;;7.50;3.83;;;;;;;5.99;65.64;99530.97;4858297;29;20053;-72
2024/03/31 01:00:41;;;;;;;7.22;3.42;;;;;;;6.40;65.98;99601.81;4891428;29;20077;-72
2024/03/31 01:17:30;;;;;;;8.00;3.65;;;;;;;6.09;66.12;99600.78;4876755;29;20040;-71
2024/03/31 01:19:56;;;;;;;6.90;3.92;;;;;;;6.13;66.42;99618.06;4874551;29;20087;-73
2024/03/31 01:23:08;;;;;;;5.22;3.83;;;;;;;6.09;66.27;99617.19;4876124;29;20080;-72
2024/03/31 01:25:35;;;;;;;5.80;3.50;;;;;;;6.05;66.23;99614.56;4874495;29;20057;-71
2024/03/31 01:28:01;;;;;;;6.45;4.00;;;;;;;6.01;66.09;99619.72;4856774;29;20065;-72
2024/03/31 01:30:28;;;;;;;8.48;3.75;;;;;;;5.94;65.73;99610.16;4859288;29;20044;-71
2024/03/31 01:32:58;;;;;;;5.75;3.88;;;;;;;6.00;66.50;99628.31;4857774;29;20469;-71
2024/03/31 01:44:27;;;;;;;6.05;3.60;;;;;;;5.93;66.42;99641.16;4874790;29;20111;-73
2024/03/31 02:00:12;;;;;;;8.45;4.00;;;;;;;5.83;67.12;99659.13;4877131;29;20075;-72
2024/03/31 02:02:41;;;;;;;7.88;4.00;;;;;;;5.81;67.19;99657.41;4875809;29;20136;-71
2024/03/31 02:05:08;;;;;;;9.43;4.13;;;;;;;5.79;66.95;99664.28;4871333;29;20063;-73
2024/03/31 02:07:34;;;;;;;8.82;4.38;;;;;;;5.80;66.59;99673.75;4855489;29;20049;-72
2024/03/31 02:10:00;;;;;;;5.80;4.47;;;;;;;5.70;67.10;99676.25;4841576;29;20349;-73
2024/03/31 02:12:33;;;;;;;8.27;4.65;;;;;;;5.63;66.71;99686.50;4856472;29;20072;-72
2024/03/31 02:15:00;;;;;;;5.45;3.60;;;;;;;5.66;67.10;99695.13;4858663;29;20045;-72
2024/03/31 02:17:27;;;;;;;9.23;4.38;;;;;;;5.53;66.77;99676.06;4874974;29;20569;-72
2024/03/31 02:19:54;;;;;;;6.32;3.97;;;;;;;5.56;66.67;99683.00;4871185;29;20050;-71
2024/03/31 02:22:20;;;;;;;8.57;4.00;;;;;;;5.48;66.90;99674.31;4858503;29;20610;-71
2024/03/31 02:24:46;;;;;;;6.45;3.90;;;;;;;5.64;67.48;99703.72;4859688;29;20393;-72
2024/03/31 02:31:39;;;;;;;6.03;4.28;;;;;;;5.61;67.53;99695.94;4874550;29;20112;-71
2024/03/31 02:34:05;;;;;;;4.60;4.00;;;;;;;5.58;67.65;99695.06;4828551;29;20169;-73
2024/03/31 02:50:58;;;;;;;6.88;3.97;;;;;;;5.26;67.09;99680.13;4821618;29;20083;-72
2024/03/31 03:11:50;;;;;;;10.40;4.72;;;;;;;5.34;67.49;99755.03;4823949;29;20035;-70
2024/03/31 03:22:58;;;;;;;6.88;4.63;;;;;;;5.48;67.57;99777.53;4876251;29;20044;-73
2024/03/31 03:25:25;;;;;;;8.10;5.03;;;;;;;5.51;68.38;99777.59;4877560;29;20053;-70
2024/03/31 03:41:08;;;;;;;7.88;4.30;;;;;;;5.53;68.17;99797.41;4877176;29;20037;-71
2024/03/31 04:02:14;;;;;;;6.35;4.93;;;;;;;5.87;67.10;99814.97;4875782;29;20044;-72
2024/03/31 04:04:40;;;;;;;7.00;4.82;;;;;;;5.92;66.99;99821.06;4860818;29;20037;-71
2024/03/31 04:11:46;;;;;;;7.13;5.00;;;;;;;6.25;66.73;99831.75;4879846;29;20045;-73
2024/03/31 04:14:12;;;;;;;8.90;4.93;;;;;;;6.39;66.57;99824.13;4875526;29;20144;-71
2024/03/31 04:16:39;;;;;;;13.52;5.47;;;;;;;6.67;66.77;99838.13;4861223;29;20123;-72
2024/03/31 04:19:05;;;;;;;9.70;4.82;;;;;;;6.83;66.55;99843.44;4877729;29;20045;-72
2024/03/31 04:21:31;;;;;;;9.02;4.97;;;;;;;6.98;66.10;99833.19;4863050;29;20053;-71
2024/03/31 04:23:58;;;;;;;9.27;4.82;;;;;;;7.00;66.21;99815.06;4860696;29;20143;-73
2024/03/31 04:26:27;;;;;;;10.18;6.60;;;;;;;7.47;66.23;99848.09;4858898;29;20098;-72
2024/03/31 04:28:54;;;;;;;10.02;5.35;;;;;;;7.77;65.76;99843.03;4859345;29;20048;-70
2024/03/31 04:31:21;;;;;;;8.43;4.85;;;;;;;8.09;65.72;99848.31;4872249;29;20085;-70
2024/03/31 04:33:47;;;;;;;7.38;4.93;;;;;;;8.38;65.36;99850.09;4846543;29;20051;-70
2024/03/31 04:36:14;;;;;;;7.68;4.80;;;;;;;8.70;64.98;99849.28;4844474;29;20047;-71
2024/03/31 04:38:41;;;;;;;13.88;5.13;;;;;;;8.99;64.72;99850.94;4848421;29;20140;-72
2024/03/31 04:41:09;;;;;;;9.27;5.15;;;;;;;9.21;64.34;99845.72;4862641;29;20052;-71
2024/03/31 04:43:35;;;;;;;6.55;4.45;;;;;;;9.47;64.08;99830.06;4873333;29;20202;-72
2024/03/31 04:46:03;;;;;;;8.07;4.22;;;;;;;10.16;63.45;99856.56;4878079;29;20049;-72
2024/03/31 04:48:31;;;;;;;9.98;7.15;;;;;;;10.79;63.23;99860.47;4878083;29;20041;-72
2024/03/31 04:51:02;;;;;;;9.50;4.25;;;;;;;11.12;62.53;99845.41;4873737;29;20062;-71
2024/03/31 04:53:30;;;;;;;6.47;4.70;;;;;;;11.60;61.65;99851.81;4875361;29;20381;-71
2024/03/31 05:14:29;;;;;;;6.47;4.57;;;;;;;21.39;49.05;99853.88;4873699;29;20049;-69
2024/03/31 05:16:55;;;;;;;5.22;4.40;;;;;;;22.70;46.18;99844.00;4859638;29;20040;-73
2024/03/31 05:19:22;;;;;;;6.38;4.88;;;;;;;23.86;42.78;99843.22;4873759;29;20056;-71
2024/03/31 05:21:49;;;;;;;5.70;4.85;;;;;;;25.02;40.10;99830.34;4871989;29;20056;-72
2024/03/31 05:24:15;;;;;;;6.95;4.57;;;;;;;26.03;37.34;99841.91;4873283;29;20501;-72
2024/03/31 05:26:41;;;;;;;6.68;4.78;;;;;;;27.01;35.37;99840.91;4859523;29;20192;-71
2024/03/31 05:33:47;;;;;;;5.38;4.53;;;;;;;29.41;31.68;99844.63;4874241;29;20040;-71
2024/03/31 05:36:14;;;;;;;5.47;4.60;;;;;;;30.23;30.16;99855.28;4861088;29;20048;-72
2024/03/31 05:38:40;;;;;;;6.13;5.00;;;;;;;30.94;28.92;99856.84;4869876;29;20420;-70
2024/03/31 05:41:11;;;;;;;7.35;4.97;;;;;;;31.77;27.52;99860.69;4841937;29;20048;-70
2024/03/31 05:43:38;;;;;;;6.25;5.15;;;;;;;32.34;25.89;99845.31;4872511;29;20105;-70
2024/03/31 05:46:04;;;;;;;6.82;5.13;;;;;;;32.85;24.96;99846.47;4874062;29;20041;-72
2024/03/31 05:48:30;;;;;;;6.47;4.80;;;;;;;33.33;23.88;99833.41;4857464;29;20531;-70
2024/03/31 05:55:22;;;;;;;6.75;5.70;;;;;;;35.10;22.52;99863.13;4874710;29;20069;-72
2024/03/31 05:57:49;;;;;;;6.53;4.90;;;;;;;35.60;21.44;99849.47;4855795;29;20096;-72
2024/03/31 06:00:15;;;;;;;8.38;5.97;;;;;;;35.97;20.50;99866.88;4860120;29;20080;-73
2024/03/31 06:12:14;;;;;;;6.45;4.55;;;;;;;38.10;18.38;99866.81;4872468;29;20041;-72
2024/03/31 06:19:33;;;;;;;5.93;5.35;;;;;;;39.12;17.70;99887.63;4874383;29;20201;-72
2024/03/31 06:22:00;;;;;;;5.20;4.80;;;;;;;39.35;16.94;99884.63;4871484;29;20120;-72
2024/03/31 06:24:26;;;;;;;5.95;5.07;;;;;;;39.73;16.75;99883.34;4856229;29;20045;-74
2024/03/31 06:32:12;;;;;;;5.70;5.20;;;;;;;40.96;15.89;99890.50;4865881;29;20041;-72
2024/03/31 06:58:34;;;;;;;5.63;4.95;;;;;;;44.49;14.11;99897.34;4869347;29;20049;-72
2024/03/31 07:01:01;;;;;;;6.80;5.07;;;;;;;44.44;12.63;99911.78;4855033;29;20052;-74
2024/03/31 07:03:27;;;;;;;6.53;5.65;;;;;;;44.07;12.68;99906.41;4851913;29;20036;-70
2024/03/31 07:11:17;;;;;;;;;;;;;;;44.78;13.46;99908.47;4869831;29;20045;-71
2024/03/31 07:13:43;;;;;;;8.25;5.43;;;;;;;45.48;12.84;99914.16;4865820;29;19927;-73
2024/03/31 07:29:23;;;;;;;7.13;5.70;;;;;;;47.10;11.45;99934.16;4871597;29;20532;-71
2024/03/31 07:41:43;;;;;;;11.55;6.13;;;;;;;48.03;10.54;99943.63;4869584;29;20054;-73
2024/03/31 07:48:39;;;;;;;7.35;5.47;;;;;;;48.35;10.70;99942.84;4868109;29;20040;-72
2024/03/31 07:55:44;;;;;;;10.57;8.70;;;;;;;48.62;10.66;99927.38;4872060;29;20500;-73
2024/03/31 07:58:10;;;;;;;13.60;12.27;;;;;;;48.68;10.04;99929.03;4850751;29;20049;-71
2024/03/31 08:14:28;;;;;;;6.00;5.00;;;;;;;49.95;9.69;99937.50;4873780;29;20568;-73
2024/03/31 08:16:54;;;;;;;9.45;5.35;;;;;;;50.00;9.86;99939.44;4874599;29;20448;-71
2024/03/31 08:19:20;;;;;;;7.00;4.75;;;;;;;49.69;9.21;99939.31;4852554;29;20440;-72
2024/03/31 08:21:46;;;;;;;6.63;4.75;;;;;;;49.01;9.34;99940.91;4869470;29;20052;-73
2024/03/31 08:24:13;;;;;;;5.70;4.88;;;;;;;49.02;9.26;99945.31;4852467;29;20045;-72
2024/03/31 08:26:39;;;;;;;8.68;4.97;;;;;;;48.72;9.41;99934.91;4855373;29;20062;-74
2024/03/31 08:33:32;;;;;;;6.93;4.50;;;;;;;48.40;9.68;99942.09;4865971;29;20107;-73
2024/03/31 08:35:58;;;;;;;7.18;5.28;;;;;;;48.22;9.46;99944.09;4850071;29;20052;-73
2024/03/31 08:38:25;;;;;;;9.40;5.78;;;;;;;48.18;9.69;99942.13;4865532;29;20087;-71
2024/03/31 08:46:46;;;;;;;8.30;5.68;;;;;;;49.05;9.67;99946.72;4875649;29;20136;-74
2024/03/31 08:54:25;;;;;;;12.43;6.32;;;;;;;48.45;9.89;99944.88;4869002;29;20049;-71
2024/03/31 09:13:46;;;;;;;10.98;5.95;;;;;;;47.48;10.34;99939.91;4864966;29;20049;-73
2024/03/31 09:16:12;;;;;;;6.60;5.18;;;;;;;47.75;9.82;99947.44;4849749;29;20453;-73
2024/03/31 09:18:39;;;;;;;10.10;5.88;;;;;;;47.08;9.88;99950.09;4867207;29;20053;-75
2024/03/31 09:21:05;;;;;;;12.50;6.38;;;;;;;47.29;10.03;99944.91;4866214;29;20045;-74
2024/03/31 09:28:24;;;;;;;17.75;6.05;;;;;;;45.67;9.96;99945.09;4864618;29;20458;-73
2024/03/31 09:54:40;;;;;;;10.32;5.15;;;;;;;47.43;9.79;99959.13;4846771;29;20046;-74
2024/03/31 10:01:47;;;;;;;13.43;5.40;;;;;;;46.07;10.43;99960.72;4846924;29;20045;-72
2024/03/31 10:04:24;;;;;;;12.18;4.90;;;;;;;45.34;10.40;99935.59;4849731;29;20114;-71
2024/03/31 10:12:45;;;;;;;6.85;3.92;;;;;;;45.18;10.42;99959.09;4869743;29;20045;-72
2024/03/31 10:15:11;;;;;;;17.35;4.47;;;;;;;44.49;10.71;99936.56;4857820;29;20049;-74
2024/03/31 10:17:41;;;;;;;16.95;5.13;;;;;;;44.61;10.35;99933.88;4865444;29;20091;-70
2024/03/31 10:20:08;;;;;;;;;;;;;;;43.99;10.31;99956.84;4849982;29;20051;-70
2024/03/31 10:22:36;;;;;;;9.07;4.50;;;;;;;41.56;10.89;99956.97;4845984;29;20446;-72
2024/03/31 10:25:02;;;;;;;9.02;4.00;;;;;;;39.46;11.75;99956.69;4847505;29;20101;-72
2024/03/31 10:27:30;;;;;;;7.78;3.67;;;;;;;37.44;12.49;99953.66;4831752;29;20056;-69
2024/03/31 10:29:58;;;;;;;5.57;3.47;;;;;;;35.59;13.35;99955.97;4833001;29;20076;-70
2024/03/31 10:41:44;;;;;;;12.38;3.92;;;;;;;29.69;17.18;99975.34;4854992;29;20133;-71
2024/03/31 11:21:33;;;;;;;10.40;3.05;;;;;;;22.73;23.31;99948.22;4847104;29;20098;-73
2024/03/31 11:24:03;;;;;;;16.50;3.95;;;;;;;22.74;23.75;99966.66;4829036;29;20059;-71
2024/03/31 11:26:30;;;;;;;5.18;2.60;;;;;;;22.53;24.24;99953.69;4864073;29;20071;-71
2024/03/31 11:28:58;;;;;;;4.80;2.50;;;;;;;22.42;24.23;99951.66;4866870;29;20093;-71
2024/03/31 11:31:26;;;;;;;5.82;3.13;;;;;;;22.46;24.73;99962.09;4853617;29;20510;-70
2024/03/31 11:33:53;;;;;;;7.05;3.20;;;;;;;22.24;24.73;99939.41;4868594;29;20042;-71
2024/03/31 11:36:29;;;;;;;3.78;2.45;;;;;;;22.11;24.85;99957.75;4850091;29;20044;-70
2024/03/31 11:38:55;;;;;;;4.22;3.00;;;;;;;21.74;24.98;99939.41;4868212;29;20045;-71
2024/03/31 11:41:21;;;;;;;14.93;3.80;;;;;;;21.20;25.03;99897.19;4852272;29;20053;-72
2024/03/31 11:43:48;;;;;;;16.58;3.90;;;;;;;21.16;25.52;99948.53;4856181;29;20500;-72
2024/03/31 11:46:18;;;;;;;7.07;3.30;;;;;;;20.92;25.71;99931.19;4869108;29;20110;-71
2024/03/31 11:48:44;;;;;;;6.40;3.33;;;;;;;20.97;25.92;99954.75;4865429;29;20047;-70
2024/03/31 11:51:12;;;;;;;3.92;3.30;;;;;;;20.84;25.95;99937.81;4866371;29;20503;-70
2024/03/31 12:02:33;;;;;;;10.32;3.10;;;;;;;20.25;26.40;99945.84;4866946;29;20064;-69
2024/03/31 12:14:05;;;;;;;13.60;3.95;;;;;;;19.43;27.45;99931.88;4867811;29;20048;-68
2024/03/31 12:20:57;;;;;;;7.50;3.10;;;;;;;19.25;28.01;99941.44;4870165;29;20033;-69
2024/03/31 12:23:23;;;;;;;10.40;4.05;;;;;;;19.06;28.09;99925.56;4865780;29;20555;-70
2024/03/31 12:25:50;;;;;;;8.77;4.60;;;;;;;19.12;28.41;99941.09;4866717;29;20135;-68
2024/03/31 12:28:16;;;;;;;14.88;4.93;;;;;;;19.05;28.52;99945.78;4850002;29;20077;-70
2024/03/31 12:36:36;;;;;;;16.50;6.50;;;;;;;18.99;28.63;99961.84;4866160;29;20041;-68
2024/03/31 12:39:04;;;;;;;11.35;5.65;;;;;;;18.74;28.81;99957.56;4833691;29;20072;-68
2024/03/31 12:41:31;;;;;;;8.15;5.43;;;;;;;18.47;29.08;99949.84;4849760;29;20070;-68
2024/03/31 12:44:04;;;;;;;6.32;5.38;;;;;;;18.17;29.82;99938.72;4852276;29;20052;-68
2024/03/31 12:46:31;;;;;;;6.70;4.43;;;;;;;18.23;29.84;99966.59;4880167;29;20045;-68
2024/03/31 13:02:54;;;;;;;7.32;3.17;;;;;;;17.49;30.86;99959.56;4865948;29;20033;-68
2024/03/31 13:09:49;;;;;;;6.07;2.75;;;;;;;17.15;31.33;99927.41;4864646;29;20037;-68
2024/03/31 13:12:16;;;;;;;7.88;3.00;;;;;;;17.32;31.65;99955.78;4847981;29;20516;-68
2024/03/31 13:14:43;;;;;;;6.78;2.53;;;;;;;17.44;31.62;99972.88;4864689;29;20041;-69
2024/03/31 13:17:09;;;;;;;7.40;2.70;;;;;;;17.28;31.52;99935.75;4864974;29;20063;-70
2024/03/31 13:19:36;;;;;;;12.00;2.80;;;;;;;17.54;31.58;99955.88;4864344;29;20535;-70
2024/03/31 13:22:02;;;;;;;4.38;2.35;;;;;;;17.58;31.41;99957.47;4849062;29;20060;-69
2024/03/31 13:24:31;;;;;;;2.92;2.28;;;;;;;17.46;31.41;99950.88;4848430;29;20073;-67
2024/03/31 13:26:57;;;;;;;4.85;2.00;;;;;;;17.44;31.42;99964.97;4865387;29;20145;-70
2024/03/31 13:43:24;;;;;;;5.43;1.95;;;;;;;17.22;31.35;99938.56;4862405;29;20045;-70
2024/03/31 13:45:50;;;;;;;5.45;1.60;;;;;;;17.25;31.26;99944.56;4833905;29;20504;-69
2024/03/31 14:02:16;;;;;;;3.88;1.98;;;;;;;16.85;32.97;99946.75;4866400;29;20088;-71
2024/03/31 14:18:55;;;;;;;3.20;1.65;;;;;;;16.26;33.88;99884.72;4865869;29;20503;-72
2024/03/31 14:30:51;;;;;;;6.20;2.78;;;;;;;16.43;34.09;99910.44;4864120;29;20048;-70
2024/03/31 14:33:18;;;;;;;4.05;2.50;;;;;;;16.49;34.20;99926.00;4863856;29;20048;-72
2024/03/31 14:40:30;;;;;;;6.80;2.30;;;;;;;16.28;34.42;99930.16;4863954;29;20442;-73
2024/03/31 14:42:56;;;;;;;6.03;2.10;;;;;;;16.17;33.96;99921.72;4864005;29;20052;-73
2024/03/31 14:45:22;;;;;;;21.00;3.20;;;;;;;16.11;34.52;99920.16;4863061;29;20059;-72
2024/03/31 14:47:48;;;;;;;6.43;1.95;;;;;;;16.00;34.72;99915.22;4847294;29;20080;-73
2024/03/31 14:50:14;;;;;;;8.95;1.90;;;;;;;15.91;34.84;99915.47;4863595;29;20420;-72
2024/03/31 14:52:41;;;;;;;4.70;1.60;;;;;;;15.87;35.00;99922.59;4849440;29;20052;-71
2024/03/31 15:19:03;;;;;;;7.32;3.85;;;;;;;15.21;35.42;99899.03;4862674;29;20060;-71
2024/03/31 15:26:08;;;;;;;17.40;6.43;;;;;;;15.14;35.82;99921.03;4856221;29;20111;-72
2024/03/31 15:33:46;;;;;;;14.07;5.18;;;;;;;15.04;36.30;99918.69;4867759;29;20041;-73
2024/03/31 15:36:12;;;;;;;25.92;11.88;;;;;;;14.84;36.41;99895.59;4867187;29;20051;-73
2024/03/31 15:38:39;;;;;;;32.40;14.52;;;;;;;14.96;36.57;99923.22;4865315;29;20048;-72
2024/03/31 15:41:09;;;;;;;26.17;14.52;;;;;;;14.80;36.83;99909.66;4865336;29;20041;-72
2024/03/31 15:43:35;;;;;;;21.02;10.70;;;;;;;14.83;37.18;99921.84;4850042;29;20049;-73
2024/03/31 15:46:01;;;;;;;20.63;10.35;;;;;;;14.80;37.25;99927.13;4866694;29;20056;-72
2024/03/31 15:48:27;;;;;;;23.95;9.88;;;;;;;14.72;37.67;99922.94;4865669;29;20049;-73
2024/03/31 15:50:54;;;;;;;18.20;9.35;;;;;;;14.63;37.68;99909.16;4850090;29;20084;-72
2024/03/31 15:53:20;;;;;;;20.15;9.60;;;;;;;14.53;37.79;99921.63;4819843;29;20049;-73
2024/03/31 15:56:05;;;;;;;17.63;7.88;;;;;;;14.44;38.09;99920.09;4867821;29;20581;-73
2024/03/31 16:03:20;;;;;;;25.98;8.30;;;;;;;14.36;38.63;99938.59;4867463;29;20452;-71
2024/03/31 16:19:07;;;;;;;;;;;;;;;14.01;39.17;99945.44;4865798;29;20045;-71
2024/03/31 16:26:15;;;;;;;14.05;4.60;;;;;;;13.72;39.32;99907.66;4872981;29;20056;-71
2024/03/31 16:33:21;;;;;;;7.28;4.32;;;;;;;13.69;40.04;99936.47;4866805;29;20256;-70
2024/03/31 16:35:47;;;;;;;8.75;4.70;;;;;;;13.59;40.36;99930.56;4863368;29;20509;-70
2024/03/31 16:52:15;;;;;;;10.43;5.40;;;;;;;13.34;40.95;99923.16;4866464;29;20057;-73
2024/03/31 16:54:42;;;;;;;13.05;5.63;;;;;;;13.33;41.16;99923.19;4847364;29;20037;-73
2024/03/31 16:57:09;;;;;;;13.00;6.85;;;;;;;13.28;41.32;99919.81;4863986;29;20211;-72
2024/03/31 16:59:35;;;;;;;13.88;5.80;;;;;;;13.32;41.45;99930.16;4865160;29;20399;-72
2024/03/31 17:02:01;;;;;;;8.20;3.33;;;;;;;13.20;41.40;99920.78;4854429;29;20500;-72
2024/03/31 17:18:27;;;;;;;6.50;3.40;;;;;;;12.89;42.75;99946.56;4864309;29;20074;-74
2024/03/31 17:20:53;;;;;;;10.90;4.82;;;;;;;12.70;42.80;99919.88;4865338;29;20289;-72
2024/03/31 17:32:25;;;;;;;9.18;3.80;;;;;;;12.55;43.31;99942.72;4852230;29;20038;-72
2024/03/31 17:40:35;;;;;;;7.28;3.67;;;;;;;12.48;44.19;99948.91;4866021;29;20132;-73
2024/03/31 17:43:01;;;;;;;7.03;4.20;;;;;;;12.46;44.33;99945.50;4862634;29;20527;-74
2024/03/31 17:45:27;;;;;;;7.90;4.50;;;;;;;12.50;44.22;99954.97;4864064;29;20041;-72
2024/03/31 17:47:53;;;;;;;11.70;4.40;;;;;;;12.46;44.36;99958.53;4865279;29;20534;-74
2024/03/31 17:50:19;;;;;;;6.25;4.78;;;;;;;12.23;44.56;99931.03;4849503;29;20119;-73
2024/03/31 17:52:45;;;;;;;9.48;5.28;;;;;;;12.29;44.93;99945.72;4862616;29;20045;-73
2024/03/31 17:55:12;;;;;;;9.38;4.55;;;;;;;12.28;45.09;99955.28;4864575;29;20072;-74
2024/03/31 18:02:18;;;;;;;6.13;3.28;;;;;;;12.13;46.28;99958.97;4865113;29;20041;-74
2024/03/31 18:37:48;;;;;;;6.95;3.22;;;;;;;11.47;48.34;99917.97;4863416;29;20057;-73
2024/03/31 18:40:15;;;;;;;6.43;3.30;;;;;;;11.43;48.78;99914.56;4865351;29;20052;-72
2024/03/31 18:51:33;;;;;;;9.15;3.95;;;;;;;11.42;49.52;99915.44;4869442;29;20045;-74
2024/03/31 18:54:00;;;;;;;8.90;3.75;;;;;;;11.31;49.37;99905.13;4852682;29;20041;-74
2024/03/31 18:56:27;;;;;;;7.55;3.80;;;;;;;11.11;49.66;99879.25;4852229;29;20041;-74
2024/03/31 18:58:53;;;;;;;9.63;3.35;;;;;;;11.33;49.69;99911.19;4868109;29;20047;-74
2024/03/31 19:14:39;;;;;;;8.25;5.10;;;;;;;11.02;51.20;99889.78;4868862;29;20049;-73
2024/03/31 19:17:06;;;;;;;21.52;6.10;;;;;;;10.97;51.13;99882.88;4867906;29;20045;-74
2024/03/31 19:19:32;;;;;;;8.82;3.80;;;;;;;11.11;51.26;99892.28;4851623;29;20046;-72
2024/03/31 19:21:58;;;;;;;6.95;3.80;;;;;;;11.16;51.78;99890.50;4868482;29;20049;-72
2024/03/31 19:24:24;;;;;;;6.80;3.50;;;;;;;11.15;51.76;99881.81;4854819;29;20049;-74
2024/03/31 19:26:50;;;;;;;6.28;3.47;;;;;;;11.17;51.95;99888.75;4850215;29;20044;-72
2024/03/31 19:29:16;;;;;;;6.45;3.70;;;;;;;11.09;51.99;99876.69;4872419;29;20045;-71
2024/03/31 19:31:42;;;;;;;5.28;3.58;;;;;;;10.95;51.92;99868.13;4867055;29;20542;-68
2024/03/31 19:34:08;;;;;;;5.68;3.65;;;;;;;10.94;52.71;99869.00;4868501;29;20041;-71
2024/03/31 19:36:34;;;;;;;5.45;3.70;;;;;;;10.94;52.66;99862.06;4868245;29;20064;-71
2024/03/31 20:16:18;;;;;;;5.20;3.33;;;;;;;10.67;54.18;99873.59;4868845;29;20037;-71
2024/03/31 20:18:44;;;;;;;6.70;4.32;;;;;;;10.69;53.75;99875.28;4835701;29;20049;-72
2024/03/31 20:21:10;;;;;;;6.82;4.50;;;;;;;10.76;54.40;99894.31;4850322;29;20049;-72
2024/03/31 20:23:41;;;;;;;7.15;4.32;;;;;;;10.71;53.91;99883.09;4865776;29;20060;-71
2024/03/31 20:26:07;;;;;;;7.80;4.97;;;;;;;10.71;54.51;99877.88;4850289;29;20037;-72
2024/03/31 20:28:34;;;;;;;9.43;4.60;;;;;;;10.66;54.74;99885.72;4855050;29;20140;-71
2024/03/31 20:35:34;;;;;;;6.55;3.42;;;;;;;10.58;55.16;99882.34;4864824;29;20037;-70
2024/03/31 20:38:01;;;;;;;6.18;4.10;;;;;;;10.47;55.09;99865.94;4850298;29;20121;-72
2024/03/31 20:40:27;;;;;;;9.15;4.55;;;;;;;10.54;55.35;99889.28;4834995;29;20064;-72
2024/03/31 20:42:53;;;;;;;7.22;4.35;;;;;;;10.59;55.42;99884.06;4849181;29;20056;-72
2024/03/31 20:45:20;;;;;;;7.63;3.92;;;;;;;10.55;55.76;99884.97;4866631;29;20495;-71
2024/03/31 20:47:46;;;;;;;6.88;4.20;;;;;;;10.55;56.00;99877.16;4866819;29;20052;-72
2024/03/31 20:50:12;;;;;;;7.10;4.57;;;;;;;10.55;55.82;99877.16;4864759;29;20045;-71
2024/03/31 20:52:38;;;;;;;6.40;3.97;;;;;;;10.43;56.33;99861.63;4851073;29;20052;-72
2024/03/31 20:55:05;;;;;;;9.65;4.18;;;;;;;10.51;56.51;99858.09;4865176;29;20045;-72
2024/03/31 20:57:31;;;;;;;7.25;3.83;;;;;;;10.46;56.10;99849.47;4866514;29;20072;-72
2024/03/31 20:59:57;;;;;;;9.05;4.20;;;;;;;10.39;56.34;99847.78;4850972;29;20187;-73
2024/03/31 21:16:24;;;;;;;9.20;4.70;;;;;;;10.33;57.21;99850.38;4863101;29;20036;-71
2024/03/31 21:18:51;;;;;;;8.75;5.15;;;;;;;10.28;57.01;99853.03;4865471;29;20052;-73
2024/03/31 21:21:19;;;;;;;7.95;4.72;;;;;;;10.16;57.68;99830.56;4867101;29;20045;-72
2024/03/31 21:23:47;;;;;;;9.27;4.50;;;;;;;10.14;57.73;99837.50;4864550;29;20050;-72
2024/03/31 21:26:14;;;;;;;6.45;4.72;;;;;;;10.25;57.86;99850.44;4867255;29;20459;-71
2024/03/31 21:28:40;;;;;;;8.88;4.90;;;;;;;10.24;58.34;99851.31;4850135;29;20113;-72
2024/03/31 21:31:08;;;;;;;9.70;5.10;;;;;;;10.29;58.60;99846.94;4865000;29;20092;-72
2024/03/31 21:33:36;;;;;;;10.15;4.90;;;;;;;10.20;58.45;99832.28;4865320;29;20063;-71
2024/03/31 21:36:03;;;;;;;6.15;4.40;;;;;;;10.13;58.95;99833.19;4853809;29;20061;-70
2024/03/31 21:56:56;;;;;;;10.77;5.15;;;;;;;10.04;59.59;99826.31;4864137;29;20052;-71
2024/03/31 22:03:49;;;;;;;9.38;4.95;;;;;;;10.00;60.28;99805.56;4865188;29;20053;-72
2024/03/31 22:06:26;;;;;;;7.40;5.82;;;;;;;10.01;60.36;99795.13;4864206;29;20066;-71
2024/03/31 22:13:19;;;;;;;11.18;5.22;;;;;;;9.98;61.00;99795.16;4867408;29;20037;-71
2024/03/31 22:20:27;;;;;;;11.48;5.47;;;;;;;9.84;61.37;99779.63;4865304;29;20041;-71
2024/03/31 22:22:53;;;;;;;8.38;6.15;;;;;;;9.93;61.52;99797.78;4865953;29;20041;-71
2024/03/31 22:25:20;;;;;;;9.10;6.65;;;;;;;9.97;62.35;99803.81;4848062;29;20132;-72
2024/03/31 22:27:46;;;;;;;10.25;5.65;;;;;;;9.87;62.09;99792.63;4832171;29;20132;-72
2024/03/31 22:30:12;;;;;;;8.30;5.57;;;;;;;9.80;62.33;99776.19;4849222;29;20053;-73
2024/03/31 22:32:38;;;;;;;9.38;5.63;;;;;;;9.85;62.47;99781.34;4841310;29;20040;-70
2024/03/31 22:35:05;;;;;;;8.02;5.45;;;;;;;9.80;62.55;99776.19;4843952;29;20075;-70
2024/03/31 22:37:31;;;;;;;9.75;5.88;;;;;;;9.88;62.52;99789.13;4862406;29;20049;-70
2024/03/31 22:54:00;;;;;;;9.55;5.53;;;;;;;9.74;63.51;99767.59;4867338;29;20045;-72
2024/03/31 22:56:26;;;;;;;9.55;5.88;;;;;;;9.75;63.34;99772.75;4867474;29;20481;-71
2024/03/31 22:58:53;;;;;;;12.27;6.25;;;;;;;9.63;63.77;99758.09;4848167;29;20528;-73
2024/03/31 23:01:20;;;;;;;8.52;5.93;;;;;;;9.72;63.74;99767.56;4864425;29;20493;-72
2024/03/31 23:03:47;;;;;;;8.15;5.57;;;;;;;9.59;64.01;99740.84;4863248;29;20041;-73
2024/03/31 23:06:13;;;;;;;8.10;5.40;;;;;;;9.70;64.25;99758.94;4866049;29;20053;-72
2024/03/31 23:13:32;;;;;;;10.00;5.75;;;;;;;9.56;64.33;99743.44;4865077;29;20041;-71
2024/03/31 23:15:58;;;;;;;15.55;7.70;;;;;;;9.58;64.42;99744.28;4848100;29;20044;-70
2024/03/31 23:18:24;;;;;;;9.40;6.10;;;;;;;9.56;64.93;99735.66;4863795;29;20037;-71
2024/03/31 23:20:51;;;;;;;10.63;5.93;;;;;;;9.61;64.79;99743.41;4849736;29;20045;-72
2024/03/31 23:23:17;;;;;;;8.00;6.22;;;;;;;9.59;64.97;99738.22;4865075;29;20045;-69
2024/03/31 23:25:44;;;;;;;9.35;6.43;;;;;;;9.42;64.38;99706.28;4852788;29;20050;-70
2024/03/31 23:32:51;;;;;;;11.18;5.78;;;;;;;9.45;65.02;99707.13;4869469;29;20093;-70
2024/03/31 23:35:17;;;;;;;7.80;6.03;;;;;;;9.44;65.13;99701.94;4867584;29;20532;-71
2024/03/31 23:37:43;;;;;;;13.82;5.95;;;;;;;9.41;64.86;99695.03;4835834;29;20441;-71
2024/03/31 23:40:11;;;;;;;7.90;5.70;;;;;;;9.45;65.13;99695.88;4851008;29;20129;-70
2024/03/31 23:42:38;;;;;;;11.38;6.43;;;;;;;9.36;65.01;99680.34;4837213;29;20060;-70
2024/03/31 23:45:04;;;;;;;9.25;6.38;;;;;;;9.35;65.06;99684.66;4851466;29;20053;-70
2024/03/31 23:47:32;;;;;;;10.20;6.47;;;;;;;9.34;65.87;99682.94;4866883;29;20070;-70
2024/03/31 23:49:58;;;;;;;10.50;6.05;;;;;;;9.30;65.74;99676.91;4851704;29;20053;-70
2024/03/31 23:52:24;;;;;;;9.55;5.90;;;;;;;9.31;65.77;99676.03;4835492;29;20079;-70